sensor_id;sensor_type;location;lat;lon;timestamp;temperature;humidity
4002;DHT22;2015;48.670;9.060;2022-07-12T00:01:36;14.90;99.90
4002;DHT22;2015;48.670;9.060;2022-07-12T00:04:07;14.90;99.90
4002;DHT22;2015;48.670;9.060;2022-07-12T00:06:40;14.90;99.90
4002;DHT22;2015;48.670;9.060;2022-07-12T00:09:11;14.80;99.90
4002;DHT22;2015;48.670;9.060;2022-07-12T00:11:43;14.80;99.90
4002;DHT22;2015;48.670;9.060;2022-07-12T00:14:15;14.80;99.90
4002;DHT22;2015;48.670;9.060;2022-07-12T00:16:47;14.80;99.90
4002;DHT22;2015;48.670;9.060;2022-07-12T00:19:19;14.80;99.90
4002;DHT22;2015;48.670;9.060;2022-07-12T00:21:51;14.80;99.90
4002;DHT22;2015;48.670;9.060;2022-07-12T00:24:23;14.70;99.90
4002;DHT22;2015;48.670;9.060;2022-07-12T00:26:55;14.70;99.90
4002;DHT22;2015;48.670;9.060;2022-07-12T00:29:27;14.60;99.90
4002;DHT22;2015;48.670;9.060;2022-07-12T00:31:59;14.50;99.90
4002;DHT22;2015;48.670;9.060;2022-07-12T00:34:31;14.50;99.90
4002;DHT22;2015;48.670;9.060;2022-07-12T00:37:03;14.40;99.90
4002;DHT22;2015;48.670;9.060;2022-07-12T00:39:35;14.40;99.90
4002;DHT22;2015;48.670;9.060;2022-07-12T00:42:06;14.40;99.90
4002;DHT22;2015;48.670;9.060;2022-07-12T00:44:38;14.40;99.90
4002;DHT22;2015;48.670;9.060;2022-07-12T00:47:34;14.40;99.90
4002;DHT22;2015;48.670;9.060;2022-07-12T00:50:15;14.30;99.90
4002;DHT22;2015;48.670;9.060;2022-07-12T00:52:50;14.40;99.90
4002;DHT22;2015;48.670;9.060;2022-07-12T00:55:23;14.40;99.90
4002;DHT22;2015;48.670;9.060;2022-07-12T00:57:56;14.40;99.90
4002;DHT22;2015;48.670;9.060;2022-07-12T01:00:28;14.40;99.90
4002;DHT22;2015;48.670;9.060;2022-07-12T01:03:02;14.40;99.90
4002;DHT22;2015;48.670;9.060;2022-07-12T01:05:34;14.40;99.90
4002;DHT22;2015;48.670;9.060;2022-07-12T01:08:06;14.30;99.90
4002;DHT22;2015;48.670;9.060;2022-07-12T01:10:39;14.30;99.90
4002;DHT22;2015;48.670;9.060;2022-07-12T01:13:11;14.30;99.90
4002;DHT22;2015;48.670;9.060;2022-07-12T01:15:44;14.30;99.90
4002;DHT22;2015;48.670;9.060;2022-07-12T01:18:17;14.30;99.90
4002;DHT22;2015;48.670;9.060;2022-07-12T01:20:49;14.30;99.90
4002;DHT22;2015;48.670;9.060;2022-07-12T01:23:25;14.30;99.90
4002;DHT22;2015;48.670;9.060;2022-07-12T01:25:57;14.40;99.90
4002;DHT22;2015;48.670;9.060;2022-07-12T01:28:34;14.40;99.90
4002;DHT22;2015;48.670;9.060;2022-07-12T01:31:07;14.40;99.90
4002;DHT22;2015;48.670;9.060;2022-07-12T01:33:39;14.40;99.90
4002;DHT22;2015;48.670;9.060;2022-07-12T01:36:11;14.40;99.90
4002;DHT22;2015;48.670;9.060;2022-07-12T01:38:43;14.40;99.90
4002;DHT22;2015;48.670;9.060;2022-07-12T01:41:16;14.40;99.90
4002;DHT22;2015;48.670;9.060;2022-07-12T01:43:48;14.40;99.90
4002;DHT22;2015;48.670;9.060;2022-07-12T01:46:20;14.40;99.90
4002;DHT22;2015;48.670;9.060;2022-07-12T01:48:52;14.40;99.90
4002;DHT22;2015;48.670;9.060;2022-07-12T01:51:23;14.40;99.90
4002;DHT22;2015;48.670;9.060;2022-07-12T01:53:55;14.40;99.90
4002;DHT22;2015;48.670;9.060;2022-07-12T01:56:27;14.30;99.90
4002;DHT22;2015;48.670;9.060;2022-07-12T01:58:59;14.30;99.90
4002;DHT22;2015;48.670;9.060;2022-07-12T02:01:32;14.30;99.90
4002;DHT22;2015;48.670;9.060;2022-07-12T02:04:05;14.30;99.90
4002;DHT22;2015;48.670;9.060;2022-07-12T02:06:37;14.20;99.90
4002;DHT22;2015;48.670;9.060;2022-07-12T02:09:11;14.20;99.90
4002;DHT22;2015;48.670;9.060;2022-07-12T02:11:44;14.20;99.90
4002;DHT22;2015;48.670;9.060;2022-07-12T02:14:19;14.20;99.90
4002;DHT22;2015;48.670;9.060;2022-07-12T02:16:51;14.20;99.90
4002;DHT22;2015;48.670;9.060;2022-07-12T02:19:22;14.20;99.90
4002;DHT22;2015;48.670;9.060;2022-07-12T02:21:54;14.20;99.90
4002;DHT22;2015;48.670;9.060;2022-07-12T02:24:26;14.10;99.90
4002;DHT22;2015;48.670;9.060;2022-07-12T02:26:58;14.20;99.90
4002;DHT22;2015;48.670;9.060;2022-07-12T02:29:30;14.10;99.90
4002;DHT22;2015;48.670;9.060;2022-07-12T02:32:02;14.10;99.90
4002;DHT22;2015;48.670;9.060;2022-07-12T02:34:33;14.10;99.90
4002;DHT22;2015;48.670;9.060;2022-07-12T02:37:05;14.10;99.90
4002;DHT22;2015;48.670;9.060;2022-07-12T02:39:37;14.10;99.90
4002;DHT22;2015;48.670;9.060;2022-07-12T02:42:09;14.10;99.90
4002;DHT22;2015;48.670;9.060;2022-07-12T02:44:41;14.10;99.90
4002;DHT22;2015;48.670;9.060;2022-07-12T02:47:12;14.00;99.90
4002;DHT22;2015;48.670;9.060;2022-07-12T02:49:44;14.00;99.90
4002;DHT22;2015;48.670;9.060;2022-07-12T02:52:16;14.00;99.90
4002;DHT22;2015;48.670;9.060;2022-07-12T02:54:48;14.00;99.90
4002;DHT22;2015;48.670;9.060;2022-07-12T02:57:19;13.90;99.90
4002;DHT22;2015;48.670;9.060;2022-07-12T02:59:51;13.90;99.90
4002;DHT22;2015;48.670;9.060;2022-07-12T03:02:23;13.90;99.90
4002;DHT22;2015;48.670;9.060;2022-07-12T03:04:55;13.90;99.90
4002;DHT22;2015;48.670;9.060;2022-07-12T03:07:27;13.90;99.90
4002;DHT22;2015;48.670;9.060;2022-07-12T03:09:58;13.90;99.90
4002;DHT22;2015;48.670;9.060;2022-07-12T03:12:30;13.90;99.90
4002;DHT22;2015;48.670;9.060;2022-07-12T03:15:03;13.90;99.90
4002;DHT22;2015;48.670;9.060;2022-07-12T03:17:35;13.90;99.90
4002;DHT22;2015;48.670;9.060;2022-07-12T03:20:08;13.90;99.90
4002;DHT22;2015;48.670;9.060;2022-07-12T03:22:44;14.00;99.90
4002;DHT22;2015;48.670;9.060;2022-07-12T03:25:19;14.00;99.90
4002;DHT22;2015;48.670;9.060;2022-07-12T03:27:51;14.00;99.90
4002;DHT22;2015;48.670;9.060;2022-07-12T03:30:23;14.00;99.90
4002;DHT22;2015;48.670;9.060;2022-07-12T03:32:54;14.00;99.90
4002;DHT22;2015;48.670;9.060;2022-07-12T03:35:27;14.10;99.90
4002;DHT22;2015;48.670;9.060;2022-07-12T03:37:59;14.10;99.90
4002;DHT22;2015;48.670;9.060;2022-07-12T03:40:32;14.10;99.90
4002;DHT22;2015;48.670;9.060;2022-07-12T03:43:05;14.10;99.90
4002;DHT22;2015;48.670;9.060;2022-07-12T03:45:37;14.20;99.90
4002;DHT22;2015;48.670;9.060;2022-07-12T03:48:09;14.20;99.90
4002;DHT22;2015;48.670;9.060;2022-07-12T03:50:41;14.20;99.90
4002;DHT22;2015;48.670;9.060;2022-07-12T03:53:13;14.20;99.90
4002;DHT22;2015;48.670;9.060;2022-07-12T03:55:45;14.20;99.90
4002;DHT22;2015;48.670;9.060;2022-07-12T03:58:17;14.20;99.90
4002;DHT22;2015;48.670;9.060;2022-07-12T04:00:49;14.10;99.90
4002;DHT22;2015;48.670;9.060;2022-07-12T04:03:20;14.10;99.90
4002;DHT22;2015;48.670;9.060;2022-07-12T04:05:52;14.10;99.90
4002;DHT22;2015;48.670;9.060;2022-07-12T04:08:31;14.10;99.90
4002;DHT22;2015;48.670;9.060;2022-07-12T04:11:05;14.10;99.90
4002;DHT22;2015;48.670;9.060;2022-07-12T04:13:37;14.00;99.90
4002;DHT22;2015;48.670;9.060;2022-07-12T04:16:09;14.00;99.90
4002;DHT22;2015;48.670;9.060;2022-07-12T04:18:40;14.00;99.90
4002;DHT22;2015;48.670;9.060;2022-07-12T04:21:12;14.00;99.90
4002;DHT22;2015;48.670;9.060;2022-07-12T04:23:44;14.00;99.90
4002;DHT22;2015;48.670;9.060;2022-07-12T04:26:16;14.00;99.90
4002;DHT22;2015;48.670;9.060;2022-07-12T04:28:48;14.00;99.90
4002;DHT22;2015;48.670;9.060;2022-07-12T04:31:20;14.00;99.90
4002;DHT22;2015;48.670;9.060;2022-07-12T04:33:51;14.00;99.90
4002;DHT22;2015;48.670;9.060;2022-07-12T04:36:23;14.00;99.90
4002;DHT22;2015;48.670;9.060;2022-07-12T04:38:55;14.10;99.90
4002;DHT22;2015;48.670;9.060;2022-07-12T04:41:27;14.10;99.90
4002;DHT22;2015;48.670;9.060;2022-07-12T04:43:58;14.10;99.90
4002;DHT22;2015;48.670;9.060;2022-07-12T04:46:30;14.20;99.90
4002;DHT22;2015;48.670;9.060;2022-07-12T04:49:02;14.20;99.90
4002;DHT22;2015;48.670;9.060;2022-07-12T04:51:34;14.30;99.90
4002;DHT22;2015;48.670;9.060;2022-07-12T04:54:06;14.30;99.90
4002;DHT22;2015;48.670;9.060;2022-07-12T04:56:38;14.40;99.90
4002;DHT22;2015;48.670;9.060;2022-07-12T04:59:10;14.40;99.90
4002;DHT22;2015;48.670;9.060;2022-07-12T05:01:41;14.50;99.90
4002;DHT22;2015;48.670;9.060;2022-07-12T05:04:13;14.60;99.90
4002;DHT22;2015;48.670;9.060;2022-07-12T05:06:45;14.60;99.90
4002;DHT22;2015;48.670;9.060;2022-07-12T05:09:17;14.70;99.90
4002;DHT22;2015;48.670;9.060;2022-07-12T05:11:49;14.80;99.90
4002;DHT22;2015;48.670;9.060;2022-07-12T05:14:20;15.00;99.90
4002;DHT22;2015;48.670;9.060;2022-07-12T05:16:52;15.20;99.90
4002;DHT22;2015;48.670;9.060;2022-07-12T05:19:24;15.30;99.90
4002;DHT22;2015;48.670;9.060;2022-07-12T05:21:56;15.40;99.90
4002;DHT22;2015;48.670;9.060;2022-07-12T05:24:28;15.40;99.90
4002;DHT22;2015;48.670;9.060;2022-07-12T05:27:00;15.50;99.90
4002;DHT22;2015;48.670;9.060;2022-07-12T05:29:32;15.50;99.90
4002;DHT22;2015;48.670;9.060;2022-07-12T05:32:04;15.50;99.90
4002;DHT22;2015;48.670;9.060;2022-07-12T05:34:41;15.60;99.90
4002;DHT22;2015;48.670;9.060;2022-07-12T05:37:13;15.60;99.90
4002;DHT22;2015;48.670;9.060;2022-07-12T05:39:45;15.70;99.90
4002;DHT22;2015;48.670;9.060;2022-07-12T05:42:16;15.70;99.90
4002;DHT22;2015;48.670;9.060;2022-07-12T05:44:48;15.80;99.90
4002;DHT22;2015;48.670;9.060;2022-07-12T05:47:20;15.80;99.90
4002;DHT22;2015;48.670;9.060;2022-07-12T05:49:52;15.90;99.90
4002;DHT22;2015;48.670;9.060;2022-07-12T05:52:23;16.00;99.90
4002;DHT22;2015;48.670;9.060;2022-07-12T05:55:14;16.00;99.90
4002;DHT22;2015;48.670;9.060;2022-07-12T05:57:46;16.10;99.90
4002;DHT22;2015;48.670;9.060;2022-07-12T06:00:18;16.10;99.90
4002;DHT22;2015;48.670;9.060;2022-07-12T06:02:49;16.30;99.90
4002;DHT22;2015;48.670;9.060;2022-07-12T06:05:22;16.40;99.90
4002;DHT22;2015;48.670;9.060;2022-07-12T06:07:54;16.40;99.90
4002;DHT22;2015;48.670;9.060;2022-07-12T06:10:26;16.50;99.90
4002;DHT22;2015;48.670;9.060;2022-07-12T06:12:58;16.60;99.90
4002;DHT22;2015;48.670;9.060;2022-07-12T06:15:30;16.70;99.90
4002;DHT22;2015;48.670;9.060;2022-07-12T06:18:05;16.80;99.90
4002;DHT22;2015;48.670;9.060;2022-07-12T06:20:37;16.90;99.90
4002;DHT22;2015;48.670;9.060;2022-07-12T06:23:08;16.90;99.90
4002;DHT22;2015;48.670;9.060;2022-07-12T06:25:40;17.10;99.90
4002;DHT22;2015;48.670;9.060;2022-07-12T06:28:14;17.10;99.90
4002;DHT22;2015;48.670;9.060;2022-07-12T06:30:46;17.20;99.90
4002;DHT22;2015;48.670;9.060;2022-07-12T06:33:18;17.30;99.90
4002;DHT22;2015;48.670;9.060;2022-07-12T06:35:50;17.40;99.90
4002;DHT22;2015;48.670;9.060;2022-07-12T06:38:21;17.50;99.90
4002;DHT22;2015;48.670;9.060;2022-07-12T06:40:53;17.60;99.90
4002;DHT22;2015;48.670;9.060;2022-07-12T06:43:25;17.70;99.90
4002;DHT22;2015;48.670;9.060;2022-07-12T06:45:57;17.80;99.90
4002;DHT22;2015;48.670;9.060;2022-07-12T06:48:29;17.90;99.90
4002;DHT22;2015;48.670;9.060;2022-07-12T06:51:01;18.10;99.90
4002;DHT22;2015;48.670;9.060;2022-07-12T06:53:33;18.10;99.90
4002;DHT22;2015;48.670;9.060;2022-07-12T06:56:05;18.30;99.90
4002;DHT22;2015;48.670;9.060;2022-07-12T06:58:37;18.30;99.90
4002;DHT22;2015;48.670;9.060;2022-07-12T07:01:08;18.40;99.90
4002;DHT22;2015;48.670;9.060;2022-07-12T07:03:40;18.40;99.90
4002;DHT22;2015;48.670;9.060;2022-07-12T07:06:12;18.40;99.90
4002;DHT22;2015;48.670;9.060;2022-07-12T07:08:44;18.50;99.90
4002;DHT22;2015;48.670;9.060;2022-07-12T07:11:16;18.50;99.90
4002;DHT22;2015;48.670;9.060;2022-07-12T07:13:48;18.50;99.90
4002;DHT22;2015;48.670;9.060;2022-07-12T07:16:23;18.60;99.90
4002;DHT22;2015;48.670;9.060;2022-07-12T07:18:56;18.60;99.90
4002;DHT22;2015;48.670;9.060;2022-07-12T07:21:28;18.70;99.90
4002;DHT22;2015;48.670;9.060;2022-07-12T07:23:59;18.70;99.90
4002;DHT22;2015;48.670;9.060;2022-07-12T07:26:31;18.70;99.90
4002;DHT22;2015;48.670;9.060;2022-07-12T07:29:04;18.80;99.90
4002;DHT22;2015;48.670;9.060;2022-07-12T07:31:55;18.90;99.90
4002;DHT22;2015;48.670;9.060;2022-07-12T07:34:26;19.00;99.90
4002;DHT22;2015;48.670;9.060;2022-07-12T07:36:58;19.00;99.90
4002;DHT22;2015;48.670;9.060;2022-07-12T07:39:30;19.00;99.90
4002;DHT22;2015;48.670;9.060;2022-07-12T07:42:03;19.20;99.90
4002;DHT22;2015;48.670;9.060;2022-07-12T07:44:35;19.40;99.90
4002;DHT22;2015;48.670;9.060;2022-07-12T07:47:22;19.50;99.90
4002;DHT22;2015;48.670;9.060;2022-07-12T07:49:55;19.60;99.90
4002;DHT22;2015;48.670;9.060;2022-07-12T07:52:27;19.70;99.90
4002;DHT22;2015;48.670;9.060;2022-07-12T07:54:58;19.70;99.90
4002;DHT22;2015;48.670;9.060;2022-07-12T07:57:30;19.80;99.90
4002;DHT22;2015;48.670;9.060;2022-07-12T08:00:03;19.90;99.90
4002;DHT22;2015;48.670;9.060;2022-07-12T08:02:35;20.00;99.90
4002;DHT22;2015;48.670;9.060;2022-07-12T08:05:08;20.10;99.90
4002;DHT22;2015;48.670;9.060;2022-07-12T08:07:39;20.30;99.90
4002;DHT22;2015;48.670;9.060;2022-07-12T08:10:31;20.40;99.90
4002;DHT22;2015;48.670;9.060;2022-07-12T08:13:03;20.40;99.90
4002;DHT22;2015;48.670;9.060;2022-07-12T08:15:35;20.70;99.90
4002;DHT22;2015;48.670;9.060;2022-07-12T08:18:07;20.80;99.90
4002;DHT22;2015;48.670;9.060;2022-07-12T08:20:39;20.90;99.90
4002;DHT22;2015;48.670;9.060;2022-07-12T08:23:18;21.20;99.90
4002;DHT22;2015;48.670;9.060;2022-07-12T08:25:49;21.40;99.90
4002;DHT22;2015;48.670;9.060;2022-07-12T08:28:21;21.70;99.90
4002;DHT22;2015;48.670;9.060;2022-07-12T08:30:54;21.80;99.90
4002;DHT22;2015;48.670;9.060;2022-07-12T08:33:27;21.90;99.90
4002;DHT22;2015;48.670;9.060;2022-07-12T08:35:59;22.20;99.90
4002;DHT22;2015;48.670;9.060;2022-07-12T08:38:30;22.50;99.90
4002;DHT22;2015;48.670;9.060;2022-07-12T08:41:04;23.00;99.90
4002;DHT22;2015;48.670;9.060;2022-07-12T08:43:36;23.40;99.90
4002;DHT22;2015;48.670;9.060;2022-07-12T08:46:10;24.30;99.90
4002;DHT22;2015;48.670;9.060;2022-07-12T08:48:43;25.10;99.90
4002;DHT22;2015;48.670;9.060;2022-07-12T08:51:20;26.30;98.30
4002;DHT22;2015;48.670;9.060;2022-07-12T08:54:24;26.90;96.60
4002;DHT22;2015;48.670;9.060;2022-07-12T08:56:57;27.00;95.70
4002;DHT22;2015;48.670;9.060;2022-07-12T08:59:29;26.30;96.20
4002;DHT22;2015;48.670;9.060;2022-07-12T09:02:01;25.30;96.80
4002;DHT22;2015;48.670;9.060;2022-07-12T09:04:33;25.10;98.30
4002;DHT22;2015;48.670;9.060;2022-07-12T09:07:14;25.40;98.00
4002;DHT22;2015;48.670;9.060;2022-07-12T09:09:49;25.00;98.20
4002;DHT22;2015;48.670;9.060;2022-07-12T09:12:23;24.70;98.70
4002;DHT22;2015;48.670;9.060;2022-07-12T09:15:09;24.50;98.70
4002;DHT22;2015;48.670;9.060;2022-07-12T09:17:55;24.00;99.40
4002;DHT22;2015;48.670;9.060;2022-07-12T09:20:34;23.60;99.30
4002;DHT22;2015;48.670;9.060;2022-07-12T09:23:09;23.20;99.90
4002;DHT22;2015;48.670;9.060;2022-07-12T09:25:46;23.40;99.90
4002;DHT22;2015;48.670;9.060;2022-07-12T09:28:18;25.00;98.30
4002;DHT22;2015;48.670;9.060;2022-07-12T09:30:52;26.70;96.00
4002;DHT22;2015;48.670;9.060;2022-07-12T09:33:25;28.00;93.90
4002;DHT22;2015;48.670;9.060;2022-07-12T09:36:15;29.10;93.20
4002;DHT22;2015;48.670;9.060;2022-07-12T09:38:53;30.30;90.30
4002;DHT22;2015;48.670;9.060;2022-07-12T09:41:26;30.80;88.30
4002;DHT22;2015;48.670;9.060;2022-07-12T09:43:58;31.30;87.40
4002;DHT22;2015;48.670;9.060;2022-07-12T09:46:31;31.40;83.90
4002;DHT22;2015;48.670;9.060;2022-07-12T09:49:04;32.10;80.70
4002;DHT22;2015;48.670;9.060;2022-07-12T09:51:37;32.90;79.40
4002;DHT22;2015;48.670;9.060;2022-07-12T09:54:11;33.80;74.20
4002;DHT22;2015;48.670;9.060;2022-07-12T09:56:47;32.90;76.20
4002;DHT22;2015;48.670;9.060;2022-07-12T09:59:24;32.70;76.10
4002;DHT22;2015;48.670;9.060;2022-07-12T10:02:00;32.80;77.60
4002;DHT22;2015;48.670;9.060;2022-07-12T10:04:33;32.70;75.20
4002;DHT22;2015;48.670;9.060;2022-07-12T10:07:05;31.50;78.00
4002;DHT22;2015;48.670;9.060;2022-07-12T10:09:37;30.40;80.30
4002;DHT22;2015;48.670;9.060;2022-07-12T10:12:10;29.80;81.50
4002;DHT22;2015;48.670;9.060;2022-07-12T10:14:43;30.10;81.20
4002;DHT22;2015;48.670;9.060;2022-07-12T10:17:22;30.80;79.90
4002;DHT22;2015;48.670;9.060;2022-07-12T10:20:14;29.90;77.50
4002;DHT22;2015;48.670;9.060;2022-07-12T10:22:46;29.30;81.20
4002;DHT22;2015;48.670;9.060;2022-07-12T10:25:28;30.00;80.00
4002;DHT22;2015;48.670;9.060;2022-07-12T10:28:02;30.00;78.60
4002;DHT22;2015;48.670;9.060;2022-07-12T10:30:47;30.80;78.20
4002;DHT22;2015;48.670;9.060;2022-07-12T10:33:23;30.90;77.60
4002;DHT22;2015;48.670;9.060;2022-07-12T10:36:00;30.30;78.50
4002;DHT22;2015;48.670;9.060;2022-07-12T10:38:34;30.10;79.60
4002;DHT22;2015;48.670;9.060;2022-07-12T10:41:19;29.70;78.30
4002;DHT22;2015;48.670;9.060;2022-07-12T10:44:04;30.00;77.90
4002;DHT22;2015;48.670;9.060;2022-07-12T10:46:36;30.90;77.80
4002;DHT22;2015;48.670;9.060;2022-07-12T10:49:29;31.80;75.10
4002;DHT22;2015;48.670;9.060;2022-07-12T10:57:42;32.70;71.00
4002;DHT22;2015;48.670;9.060;2022-07-12T11:00:18;32.70;72.10
4002;DHT22;2015;48.670;9.060;2022-07-12T11:02:51;33.30;69.60
4002;DHT22;2015;48.670;9.060;2022-07-12T11:05:26;33.70;69.70
4002;DHT22;2015;48.670;9.060;2022-07-12T11:07:58;33.40;69.00
4002;DHT22;2015;48.670;9.060;2022-07-12T11:10:30;33.30;70.00
4002;DHT22;2015;48.670;9.060;2022-07-12T11:13:19;33.60;69.80
4002;DHT22;2015;48.670;9.060;2022-07-12T11:16:00;34.00;69.60
4002;DHT22;2015;48.670;9.060;2022-07-12T11:18:33;33.60;67.90
4002;DHT22;2015;48.670;9.060;2022-07-12T11:21:06;34.20;65.60
4002;DHT22;2015;48.670;9.060;2022-07-12T11:23:38;34.70;64.90
4002;DHT22;2015;48.670;9.060;2022-07-12T11:26:13;34.10;66.60
4002;DHT22;2015;48.670;9.060;2022-07-12T11:28:45;33.40;67.10
4002;DHT22;2015;48.670;9.060;2022-07-12T11:31:19;32.20;68.40
4002;DHT22;2015;48.670;9.060;2022-07-12T11:33:53;31.40;68.60
4002;DHT22;2015;48.670;9.060;2022-07-12T11:36:26;30.50;72.10
4002;DHT22;2015;48.670;9.060;2022-07-12T11:38:59;29.20;74.20
4002;DHT22;2015;48.670;9.060;2022-07-12T11:41:31;28.80;76.60
4002;DHT22;2015;48.670;9.060;2022-07-12T11:44:03;27.90;77.50
4002;DHT22;2015;48.670;9.060;2022-07-12T11:46:35;27.80;79.80
4002;DHT22;2015;48.670;9.060;2022-07-12T11:49:07;27.60;78.80
4002;DHT22;2015;48.670;9.060;2022-07-12T11:51:39;27.30;79.00
4002;DHT22;2015;48.670;9.060;2022-07-12T11:54:11;27.20;80.60
4002;DHT22;2015;48.670;9.060;2022-07-12T11:56:43;27.20;80.10
4002;DHT22;2015;48.670;9.060;2022-07-12T11:59:22;26.90;79.70
4002;DHT22;2015;48.670;9.060;2022-07-12T12:02:14;26.80;81.40
4002;DHT22;2015;48.670;9.060;2022-07-12T12:04:52;26.70;80.80
4002;DHT22;2015;48.670;9.060;2022-07-12T12:07:25;26.50;81.90
4002;DHT22;2015;48.670;9.060;2022-07-12T12:10:09;26.20;82.40
4002;DHT22;2015;48.670;9.060;2022-07-12T12:15:18;25.70;84.40
4002;DHT22;2015;48.670;9.060;2022-07-12T12:20:25;25.60;83.70
4002;DHT22;2015;48.670;9.060;2022-07-12T12:23:03;25.70;84.70
4002;DHT22;2015;48.670;9.060;2022-07-12T12:25:35;25.90;84.00
4002;DHT22;2015;48.670;9.060;2022-07-12T12:28:06;25.90;84.60
4002;DHT22;2015;48.670;9.060;2022-07-12T12:30:55;25.60;83.50
4002;DHT22;2015;48.670;9.060;2022-07-12T12:36:29;25.70;84.50
4002;DHT22;2015;48.670;9.060;2022-07-12T12:39:07;25.50;84.20
4002;DHT22;2015;48.670;9.060;2022-07-12T12:41:41;25.50;84.40
4002;DHT22;2015;48.670;9.060;2022-07-12T12:44:13;25.50;82.90
4002;DHT22;2015;48.670;9.060;2022-07-12T12:46:55;25.40;84.50
4002;DHT22;2015;48.670;9.060;2022-07-12T12:49:49;25.20;83.50
4002;DHT22;2015;48.670;9.060;2022-07-12T12:52:29;25.20;84.90
4002;DHT22;2015;48.670;9.060;2022-07-12T12:55:01;25.20;84.20
4002;DHT22;2015;48.670;9.060;2022-07-12T12:57:33;25.30;83.50
4002;DHT22;2015;48.670;9.060;2022-07-12T13:00:05;25.20;84.40
4002;DHT22;2015;48.670;9.060;2022-07-12T13:02:37;25.20;83.70
4002;DHT22;2015;48.670;9.060;2022-07-12T13:05:09;25.30;84.20
4002;DHT22;2015;48.670;9.060;2022-07-12T13:07:41;25.40;83.80
4002;DHT22;2015;48.670;9.060;2022-07-12T13:10:13;25.40;85.90
4002;DHT22;2015;48.670;9.060;2022-07-12T13:12:45;25.40;84.20
4002;DHT22;2015;48.670;9.060;2022-07-12T13:15:17;25.30;84.40
4002;DHT22;2015;48.670;9.060;2022-07-12T13:17:50;25.30;84.50
4002;DHT22;2015;48.670;9.060;2022-07-12T13:20:23;25.20;83.10
4002;DHT22;2015;48.670;9.060;2022-07-12T13:22:56;25.30;83.80
4002;DHT22;2015;48.670;9.060;2022-07-12T13:25:29;25.40;84.20
4002;DHT22;2015;48.670;9.060;2022-07-12T13:28:02;25.40;84.50
4002;DHT22;2015;48.670;9.060;2022-07-12T13:30:34;25.50;84.60
4002;DHT22;2015;48.670;9.060;2022-07-12T13:33:06;25.50;83.60
4002;DHT22;2015;48.670;9.060;2022-07-12T13:35:39;25.30;84.40
4002;DHT22;2015;48.670;9.060;2022-07-12T13:38:12;25.20;84.20
4002;DHT22;2015;48.670;9.060;2022-07-12T13:40:44;25.30;82.90
4002;DHT22;2015;48.670;9.060;2022-07-12T13:43:17;25.40;83.80
4002;DHT22;2015;48.670;9.060;2022-07-12T13:45:52;25.50;84.10
4002;DHT22;2015;48.670;9.060;2022-07-12T13:48:24;25.50;83.50
4002;DHT22;2015;48.670;9.060;2022-07-12T13:50:56;25.40;84.40
4002;DHT22;2015;48.670;9.060;2022-07-12T13:53:47;25.40;84.60
4002;DHT22;2015;48.670;9.060;2022-07-12T13:56:19;25.50;82.80
4002;DHT22;2015;48.670;9.060;2022-07-12T13:58:51;25.50;82.50
4002;DHT22;2015;48.670;9.060;2022-07-12T14:01:23;25.60;83.40
4002;DHT22;2015;48.670;9.060;2022-07-12T14:03:55;25.40;81.90
4002;DHT22;2015;48.670;9.060;2022-07-12T14:06:28;25.40;82.20
4002;DHT22;2015;48.670;9.060;2022-07-12T14:09:00;25.40;82.00
4002;DHT22;2015;48.670;9.060;2022-07-12T14:11:32;25.30;82.20
4002;DHT22;2015;48.670;9.060;2022-07-12T14:14:04;25.30;82.70
4002;DHT22;2015;48.670;9.060;2022-07-12T14:16:35;25.20;81.50
4002;DHT22;2015;48.670;9.060;2022-07-12T14:19:07;25.00;82.10
4002;DHT22;2015;48.670;9.060;2022-07-12T14:21:39;25.00;83.20
4002;DHT22;2015;48.670;9.060;2022-07-12T14:24:11;25.10;83.40
4002;DHT22;2015;48.670;9.060;2022-07-12T14:26:43;25.10;84.10
4002;DHT22;2015;48.670;9.060;2022-07-12T14:29:15;25.20;84.20
4002;DHT22;2015;48.670;9.060;2022-07-12T14:31:46;25.20;84.40
4002;DHT22;2015;48.670;9.060;2022-07-12T14:34:18;25.00;83.80
4002;DHT22;2015;48.670;9.060;2022-07-12T14:36:50;25.00;85.50
4002;DHT22;2015;48.670;9.060;2022-07-12T14:39:22;25.00;84.10
4002;DHT22;2015;48.670;9.060;2022-07-12T14:41:54;24.90;83.90
4002;DHT22;2015;48.670;9.060;2022-07-12T14:44:27;24.90;84.80
4002;DHT22;2015;48.670;9.060;2022-07-12T14:46:59;24.90;84.60
4002;DHT22;2015;48.670;9.060;2022-07-12T14:49:31;24.80;85.40
4002;DHT22;2015;48.670;9.060;2022-07-12T14:52:05;24.80;85.90
4002;DHT22;2015;48.670;9.060;2022-07-12T14:54:37;24.80;86.30
4002;DHT22;2015;48.670;9.060;2022-07-12T14:57:09;24.90;85.60
4002;DHT22;2015;48.670;9.060;2022-07-12T14:59:41;25.10;86.20
4002;DHT22;2015;48.670;9.060;2022-07-12T15:02:13;25.00;83.30
4002;DHT22;2015;48.670;9.060;2022-07-12T15:04:45;24.90;84.80
4002;DHT22;2015;48.670;9.060;2022-07-12T15:07:16;24.90;84.50
4002;DHT22;2015;48.670;9.060;2022-07-12T15:09:48;24.80;84.80
4002;DHT22;2015;48.670;9.060;2022-07-12T15:12:20;24.80;84.70
4002;DHT22;2015;48.670;9.060;2022-07-12T15:14:52;24.70;84.20
4002;DHT22;2015;48.670;9.060;2022-07-12T15:17:29;24.80;82.80
4002;DHT22;2015;48.670;9.060;2022-07-12T15:20:02;24.70;83.90
4002;DHT22;2015;48.670;9.060;2022-07-12T15:22:34;24.90;83.20
4002;DHT22;2015;48.670;9.060;2022-07-12T15:25:06;24.90;85.00
4002;DHT22;2015;48.670;9.060;2022-07-12T15:27:38;24.90;83.70
4002;DHT22;2015;48.670;9.060;2022-07-12T15:30:11;24.90;82.80
4002;DHT22;2015;48.670;9.060;2022-07-12T15:32:43;24.90;83.30
4002;DHT22;2015;48.670;9.060;2022-07-12T15:35:21;24.90;84.60
4002;DHT22;2015;48.670;9.060;2022-07-12T15:37:53;24.70;84.10
4002;DHT22;2015;48.670;9.060;2022-07-12T15:40:25;24.60;84.60
4002;DHT22;2015;48.670;9.060;2022-07-12T15:42:56;24.60;85.50
4002;DHT22;2015;48.670;9.060;2022-07-12T15:45:29;24.50;85.50
4002;DHT22;2015;48.670;9.060;2022-07-12T15:48:01;24.40;86.00
4002;DHT22;2015;48.670;9.060;2022-07-12T15:50:33;24.40;85.30
4002;DHT22;2015;48.670;9.060;2022-07-12T15:53:04;24.30;86.30
4002;DHT22;2015;48.670;9.060;2022-07-12T15:56:08;24.40;86.90
4002;DHT22;2015;48.670;9.060;2022-07-12T15:58:41;24.30;86.70
4002;DHT22;2015;48.670;9.060;2022-07-12T16:01:14;24.30;86.10
4002;DHT22;2015;48.670;9.060;2022-07-12T16:03:46;24.30;86.40
4002;DHT22;2015;48.670;9.060;2022-07-12T16:06:36;24.30;85.80
4002;DHT22;2015;48.670;9.060;2022-07-12T16:09:08;24.20;86.10
4002;DHT22;2015;48.670;9.060;2022-07-12T16:11:41;24.20;87.10
4002;DHT22;2015;48.670;9.060;2022-07-12T16:14:13;24.20;87.40
4002;DHT22;2015;48.670;9.060;2022-07-12T16:16:55;24.20;87.50
4002;DHT22;2015;48.670;9.060;2022-07-12T16:19:30;24.20;88.30
4002;DHT22;2015;48.670;9.060;2022-07-12T16:22:03;24.20;86.90
4002;DHT22;2015;48.670;9.060;2022-07-12T16:24:34;24.10;86.60
4002;DHT22;2015;48.670;9.060;2022-07-12T16:27:07;24.00;88.50
4002;DHT22;2015;48.670;9.060;2022-07-12T16:29:39;24.00;87.10
4002;DHT22;2015;48.670;9.060;2022-07-12T16:32:11;23.90;88.00
4002;DHT22;2015;48.670;9.060;2022-07-12T16:34:44;24.00;88.50
4002;DHT22;2015;48.670;9.060;2022-07-12T16:37:16;24.10;89.50
4002;DHT22;2015;48.670;9.060;2022-07-12T16:39:48;24.10;88.80
4002;DHT22;2015;48.670;9.060;2022-07-12T16:42:20;24.00;86.80
4002;DHT22;2015;48.670;9.060;2022-07-12T16:44:51;24.00;86.20
4002;DHT22;2015;48.670;9.060;2022-07-12T16:47:23;24.10;87.60
4002;DHT22;2015;48.670;9.060;2022-07-12T16:49:55;24.00;87.20
4002;DHT22;2015;48.670;9.060;2022-07-12T16:52:27;23.90;87.40
4002;DHT22;2015;48.670;9.060;2022-07-12T16:54:59;23.90;87.30
4002;DHT22;2015;48.670;9.060;2022-07-12T16:57:31;23.90;87.10